Time;durP1;ratioP1;P1;durP2;ratioP2;P2;SDS_P1;SDS_P2;PMS_P1;PMS_P2;Temp;Humidity;BMP_temperature;BMP_pressure;BME280_temperature;BME280_humidity;BME280_pressure;Samples;Min_cycle;Max_cycle;Signal;HPM_P1;HPM_P2
2023/09/04 00:02:07;;;;;;;11.25;9.52;;;13.80;96.80;;;;;;5002955;28;20145;-80
2023/09/04 00:04:33;;;;;;;12.10;9.77;;;13.80;96.90;;;;;;5022527;28;20051;-80
2023/09/04 00:06:59;;;;;;;10.40;9.15;;;13.70;97.00;;;;;;4978174;28;20053;-82
2023/09/04 00:09:24;;;;;;;11.70;10.27;;;13.70;97.20;;;;;;4993277;28;20052;-81
2023/09/04 00:12:06;;;;;;;11.98;10.10;;;13.70;97.30;;;;;;5024550;28;20632;-80
2023/09/04 00:14:32;;;;;;;12.75;10.80;;;13.70;97.40;;;;;;5031215;28;21335;-80
2023/09/04 00:16:58;;;;;;;13.40;10.73;;;13.70;97.50;;;;;;5025957;28;20041;-76
2023/09/04 00:19:24;;;;;;;13.30;9.93;;;13.70;97.60;;;;;;5012853;28;20048;-81
2023/09/04 00:21:50;;;;;;;12.00;10.32;;;13.60;97.70;;;;;;5010000;28;20051;-82
2023/09/04 00:24:17;;;;;;;13.20;10.05;;;13.60;97.80;;;;;;5024413;28;20044;-79
2023/09/04 00:26:43;;;;;;;12.43;10.93;;;13.60;97.90;;;;;;5027550;28;20196;-78
2023/09/04 00:29:09;;;;;;;10.35;9.23;;;13.60;98.10;;;;;;5008839;28;20539;-81
2023/09/04 00:31:35;;;;;;;12.55;10.88;;;13.60;98.20;;;;;;5023674;28;20567;-80
2023/09/04 00:34:00;;;;;;;14.93;11.20;;;13.60;98.30;;;;;;5021918;28;20108;-80
2023/09/04 00:36:26;;;;;;;13.55;10.90;;;13.60;98.50;;;;;;4988999;28;20052;-79
2023/09/04 00:38:52;;;;;;;11.73;10.10;;;13.50;98.60;;;;;;5031993;28;20044;-80
2023/09/04 00:41:19;;;;;;;12.35;10.77;;;13.50;98.80;;;;;;5037097;28;20056;-79
2023/09/04 00:43:44;;;;;;;11.75;9.48;;;13.50;98.90;;;;;;5016491;28;20053;-78
2023/09/04 00:46:11;;;;;;;13.23;10.27;;;13.50;99.00;;;;;;5030937;28;20067;-78
2023/09/04 00:48:39;;;;;;;11.00;9.40;;;13.50;99.20;;;;;;5029369;28;20084;-78
2023/09/04 00:51:05;;;;;;;11.38;9.48;;;13.50;99.30;;;;;;5030973;28;20067;-79
2023/09/04 00:53:32;;;;;;;11.27;9.70;;;13.50;99.50;;;;;;5017524;28;20052;-79
2023/09/04 00:56:00;;;;;;;10.60;9.45;;;13.40;99.50;;;;;;5014653;28;20762;-78
2023/09/04 00:58:26;;;;;;;12.23;9.43;;;13.40;99.60;;;;;;5031409;28;20052;-79
2023/09/04 01:00:53;;;;;;;12.00;9.90;;;13.40;99.70;;;;;;5015115;28;20052;-79
2023/09/04 01:03:20;;;;;;;10.68;9.02;;;13.40;99.80;;;;;;5029443;28;20131;-78
2023/09/04 01:05:46;;;;;;;12.23;10.05;;;13.40;99.90;;;;;;5013234;28;20087;-80
2023/09/04 01:08:13;;;;;;;10.52;8.98;;;13.40;99.90;;;;;;5039982;28;20195;-78
2023/09/04 01:11:02;;;;;;;13.27;10.05;;;13.40;99.90;;;;;;5033642;28;20468;-77
2023/09/04 01:13:37;;;;;;;11.63;9.88;;;13.40;99.90;;;;;;5005090;28;20056;-81
2023/09/04 01:16:06;;;;;;;10.90;9.45;;;13.40;99.90;;;;;;5023392;28;20042;-80
2023/09/04 01:18:32;;;;;;;13.73;10.13;;;13.40;99.90;;;;;;5021110;28;20055;-79
2023/09/04 01:21:02;;;;;;;14.60;10.13;;;13.40;99.90;;;;;;5027353;28;20048;-79
2023/09/04 01:23:28;;;;;;;11.88;10.00;;;13.40;99.90;;;;;;4995363;28;20056;-83
2023/09/04 01:26:14;;;;;;;13.45;10.20;;;13.40;99.90;;;;;;5025741;28;20065;-80
2023/09/04 01:28:51;;;;;;;11.82;9.45;;;13.40;99.90;;;;;;5038001;28;20040;-79
2023/09/04 01:31:33;;;;;;;11.65;9.50;;;13.30;99.90;;;;;;5023340;28;20041;-82
2023/09/04 01:34:05;;;;;;;11.45;9.88;;;13.30;99.90;;;;;;5020329;28;20315;-80
2023/09/04 01:36:33;;;;;;;11.30;9.25;;;13.30;99.90;;;;;;5023721;28;20044;-81
2023/09/04 01:38:59;;;;;;;12.55;9.68;;;13.30;99.90;;;;;;5026203;28;20056;-78
2023/09/04 01:41:25;;;;;;;10.90;9.02;;;13.30;99.90;;;;;;5022955;28;20048;-81
2023/09/04 01:43:51;;;;;;;11.13;9.50;;;13.30;99.90;;;;;;5025787;28;20047;-81
2023/09/04 01:46:16;;;;;;;11.45;9.02;;;13.30;99.90;;;;;;5007536;28;20133;-82
2023/09/04 01:48:42;;;;;;;11.05;9.57;;;13.30;99.90;;;;;;5007103;28;20154;-80
2023/09/04 01:51:08;;;;;;;10.60;8.60;;;13.30;99.90;;;;;;5021087;28;20148;-81
2023/09/04 01:53:34;;;;;;;11.50;9.27;;;13.30;99.90;;;;;;5026894;28;20430;-79
2023/09/04 01:56:00;;;;;;;10.95;9.10;;;13.30;99.90;;;;;;5029791;28;20041;-78
2023/09/04 01:58:28;;;;;;;10.93;8.73;;;13.30;99.90;;;;;;5024334;28;20053;-79
2023/09/04 02:00:54;;;;;;;10.63;9.18;;;13.30;99.90;;;;;;5008349;28;20134;-77
2023/09/04 02:03:19;;;;;;;10.15;8.98;;;13.30;99.90;;;;;;5040952;28;20142;-78
2023/09/04 02:05:45;;;;;;;9.65;8.43;;;13.20;99.90;;;;;;5007300;28;20051;-78
2023/09/04 02:08:11;;;;;;;11.60;9.45;;;13.20;99.90;;;;;;5026134;28;20454;-78
2023/09/04 02:10:37;;;;;;;9.68;8.48;;;13.20;99.90;;;;;;5005104;28;20059;-78
2023/09/04 02:13:03;;;;;;;10.23;7.85;;;13.20;99.90;;;;;;5025417;28;20044;-79
2023/09/04 02:15:30;;;;;;;9.00;7.60;;;13.10;99.90;;;;;;5026391;28;20496;-78
2023/09/04 02:17:56;;;;;;;8.52;7.38;;;13.20;99.90;;;;;;5009276;28;20124;-78
2023/09/04 02:20:22;;;;;;;9.25;7.72;;;13.20;99.90;;;;;;5024767;28;20507;-78
2023/09/04 02:22:47;;;;;;;9.10;7.32;;;13.10;99.90;;;;;;5044798;28;20040;-78
2023/09/04 02:25:13;;;;;;;9.95;7.70;;;13.10;99.90;;;;;;5017518;28;20049;-78
2023/09/04 02:27:39;;;;;;;9.80;7.90;;;13.10;99.90;;;;;;5027932;28;20106;-78
2023/09/04 02:30:08;;;;;;;9.02;6.93;;;13.10;99.90;;;;;;5030806;28;20596;-76
2023/09/04 02:32:34;;;;;;;8.48;6.97;;;13.10;99.90;;;;;;5030012;28;20097;-78
2023/09/04 02:35:00;;;;;;;9.38;7.45;;;13.10;99.90;;;;;;5013832;28;21973;-79
2023/09/04 02:37:27;;;;;;;8.77;6.93;;;13.10;99.90;;;;;;5030894;28;21267;-77
2023/09/04 02:39:52;;;;;;;8.07;7.22;;;13.10;99.90;;;;;;5051631;28;20040;-78
2023/09/04 02:42:18;;;;;;;7.78;6.43;;;13.10;99.90;;;;;;5033822;28;20043;-79
2023/09/04 02:44:44;;;;;;;8.68;6.60;;;13.00;99.90;;;;;;5018216;28;20496;-77
2023/09/04 02:47:10;;;;;;;8.25;7.15;;;13.00;99.90;;;;;;5054281;28;20138;-77
2023/09/04 02:49:36;;;;;;;7.65;6.63;;;13.00;99.90;;;;;;5034089;28;22329;-76
2023/09/04 02:52:02;;;;;;;8.43;6.60;;;13.00;99.90;;;;;;5034397;28;20048;-80
2023/09/04 02:54:28;;;;;;;8.55;6.68;;;12.90;99.90;;;;;;5019257;28;20052;-77
2023/09/04 02:56:53;;;;;;;6.75;5.10;;;12.90;99.90;;;;;;5049061;28;20044;-79
2023/09/04 02:59:19;;;;;;;5.60;4.60;;;12.90;99.90;;;;;;5033128;28;20048;-76
2023/09/04 03:01:45;;;;;;;6.72;4.53;;;12.90;99.90;;;;;;5033592;28;20040;-76
2023/09/04 03:04:11;;;;;;;4.82;4.07;;;12.90;99.90;;;;;;5034547;28;20031;-75
2023/09/04 03:06:38;;;;;;;4.65;3.95;;;12.90;99.90;;;;;;5036117;28;20380;-75
2023/09/04 03:09:04;;;;;;;4.78;4.28;;;12.90;99.90;;;;;;5027451;28;20048;-78
2023/09/04 03:11:30;;;;;;;5.40;4.43;;;12.80;99.90;;;;;;5012092;28;20044;-79
2023/09/04 03:13:56;;;;;;;6.07;4.03;;;12.80;99.90;;;;;;5026867;28;20083;-77
2023/09/04 03:16:22;;;;;;;5.50;3.97;;;13.70;99.90;;;;;;5009133;28;20056;-77
2023/09/04 03:18:48;;;;;;;6.78;5.38;;;12.80;99.90;;;;;;5022896;28;20375;-81
2023/09/04 03:21:14;;;;;;;7.47;5.15;;;12.80;99.90;;;;;;5010353;28;20036;-86
2023/09/04 03:23:39;;;;;;;6.65;5.25;;;12.70;99.90;;;;;;5027627;28;21266;-78
2023/09/04 03:26:05;;;;;;;7.70;5.35;;;12.80;99.90;;;;;;5030342;28;20472;-86
2023/09/04 03:28:31;;;;;;;6.13;5.25;;;12.80;99.90;;;;;;5024804;28;20514;-76
2023/09/04 03:30:57;;;;;;;6.35;4.70;;;12.70;99.90;;;;;;5025442;28;20069;-76
2023/09/04 03:33:23;;;;;;;6.10;4.75;;;12.70;99.90;;;;;;5025528;28;20059;-77
2023/09/04 03:35:49;;;;;;;7.68;4.72;;;12.70;99.90;;;;;;5026689;28;20075;-78
2023/09/04 03:38:14;;;;;;;5.13;4.40;;;12.70;99.90;;;;;;5021048;28;20654;-77
2023/09/04 03:40:40;;;;;;;5.00;4.20;;;12.60;99.90;;;;;;5009633;28;20106;-76
2023/09/04 03:43:06;;;;;;;5.70;4.60;;;12.60;99.90;;;;;;5029612;28;20074;-81
2023/09/04 03:45:33;;;;;;;5.38;4.57;;;12.60;99.90;;;;;;5009234;28;20800;-79
2023/09/04 03:47:59;;;;;;;5.15;4.32;;;12.60;99.90;;;;;;5031237;28;20052;-80
2023/09/04 03:50:25;;;;;;;6.20;4.53;;;12.60;99.90;;;;;;5043764;28;20862;-81
2023/09/04 03:52:51;;;;;;;6.00;4.82;;;12.50;99.90;;;;;;5030751;28;20044;-84
2023/09/04 03:55:16;;;;;;;6.13;5.40;;;12.50;99.90;;;;;;5030223;28;20102;-79
2023/09/04 03:57:43;;;;;;;6.22;5.00;;;12.50;99.90;;;;;;5011603;28;20613;-78
2023/09/04 04:00:16;;;;;;;6.25;5.43;;;12.50;99.90;;;;;;5041572;28;20127;-80
2023/09/04 04:02:44;;;;;;;7.32;5.57;;;12.50;99.90;;;;;;5044355;28;20048;-80
2023/09/04 04:05:11;;;;;;;7.93;5.75;;;12.50;99.90;;;;;;5027683;28;20048;-80
2023/09/04 04:07:38;;;;;;;7.30;5.63;;;12.50;99.90;;;;;;5024177;28;20044;-82
2023/09/04 04:10:05;;;;;;;6.22;5.15;;;12.50;99.90;;;;;;5030355;28;20048;-79
2023/09/04 04:12:31;;;;;;;8.73;6.20;;;12.50;99.90;;;;;;5009847;28;20044;-79
2023/09/04 04:14:58;;;;;;;8.45;6.18;;;12.50;99.90;;;;;;5041787;28;20044;-80
2023/09/04 04:17:27;;;;;;;6.43;5.22;;;12.40;99.90;;;;;;5027443;28;20091;-79
2023/09/04 04:19:53;;;;;;;6.53;5.30;;;12.40;99.90;;;;;;5008607;28;20971;-81
2023/09/04 04:22:23;;;;;;;6.68;5.28;;;12.40;99.90;;;;;;4993906;28;20060;-77
2023/09/04 04:24:52;;;;;;;7.05;5.70;;;12.40;99.90;;;;;;5007712;28;20056;-76
2023/09/04 04:27:18;;;;;;;7.28;6.00;;;12.30;99.90;;;;;;5028143;28;20083;-77
2023/09/04 04:29:46;;;;;;;7.25;5.63;;;12.30;99.90;;;;;;5013466;28;20396;-76
2023/09/04 04:32:11;;;;;;;7.05;5.80;;;12.30;99.90;;;;;;5024004;28;20080;-76
2023/09/04 04:34:39;;;;;;;8.07;5.50;;;12.30;99.90;;;;;;5040223;28;20170;-76
2023/09/04 04:37:05;;;;;;;7.13;5.40;;;12.30;99.90;;;;;;5019927;28;20048;-76
2023/09/04 04:39:31;;;;;;;7.25;5.63;;;12.30;99.90;;;;;;5024187;28;20052;-76
2023/09/04 04:41:56;;;;;;;8.70;6.63;;;12.30;99.90;;;;;;5001280;28;20458;-77
2023/09/04 04:44:22;;;;;;;7.47;6.03;;;12.20;99.90;;;;;;5004497;28;20613;-76
2023/09/04 04:46:49;;;;;;;8.15;6.35;;;11.40;99.90;;;;;;5021895;28;20059;-77
2023/09/04 04:49:21;;;;;;;8.15;6.40;;;12.80;99.90;;;;;;5041459;28;20567;-77
2023/09/04 04:51:47;;;;;;;7.40;6.30;;;12.30;99.90;;;;;;5019979;28;20101;-77
2023/09/04 04:54:13;;;;;;;9.25;6.82;;;12.20;99.90;;;;;;5022923;28;20053;-77
2023/09/04 04:56:39;;;;;;;9.52;6.65;;;12.20;99.90;;;;;;5022546;28;20052;-77
2023/09/04 04:59:07;;;;;;;8.70;7.25;;;13.10;99.90;;;;;;5010437;28;20049;-77
2023/09/04 05:01:33;;;;;;;8.18;6.95;;;12.20;99.90;;;;;;5028066;28;20052;-77
2023/09/04 05:03:59;;;;;;;8.75;6.80;;;12.20;99.90;;;;;;4992980;28;20064;-77
2023/09/04 05:06:25;;;;;;;8.57;6.72;;;12.20;99.90;;;;;;5010146;28;20239;-76
2023/09/04 05:08:51;;;;;;;9.80;7.60;;;12.20;99.90;;;;;;5039833;28;20052;-76
2023/09/04 05:11:17;;;;;;;9.98;7.65;;;12.20;99.90;;;;;;5021600;28;20139;-76
2023/09/04 05:13:43;;;;;;;8.55;7.13;;;12.20;99.90;;;;;;5040553;28;20495;-76
2023/09/04 05:16:09;;;;;;;8.77;7.63;;;12.20;99.90;;;;;;5025006;28;20045;-78
2023/09/04 05:18:34;;;;;;;10.23;7.63;;;12.20;99.90;;;;;;5019586;28;20044;-78
2023/09/04 05:21:03;;;;;;;10.25;8.20;;;12.20;99.90;;;;;;5009232;28;20159;-74
2023/09/04 05:23:29;;;;;;;10.57;8.32;;;12.30;99.90;;;;;;5012262;28;20052;-79
2023/09/04 05:25:55;;;;;;;11.27;8.73;;;12.30;99.90;;;;;;5008908;28;20048;-80
2023/09/04 05:28:21;;;;;;;10.90;8.32;;;12.30;99.90;;;;;;5023848;28;20049;-79
2023/09/04 05:30:47;;;;;;;10.25;7.55;;;12.30;99.90;;;;;;5008708;28;20087;-80
2023/09/04 05:33:13;;;;;;;9.88;7.90;;;12.30;99.90;;;;;;5005626;28;20136;-79
2023/09/04 05:35:38;;;;;;;11.32;7.95;;;12.30;99.90;;;;;;5021962;28;20055;-79
2023/09/04 05:38:04;;;;;;;9.13;7.85;;;12.40;99.90;;;;;;5020369;28;20078;-79
2023/09/04 05:40:30;;;;;;;9.13;7.53;;;12.40;99.90;;;;;;5003577;28;20491;-79
2023/09/04 05:42:57;;;;;;;9.48;7.63;;;12.40;99.90;;;;;;5006461;28;20110;-78
2023/09/04 05:45:23;;;;;;;9.88;7.32;;;12.40;99.90;;;;;;5005001;28;20119;-79
2023/09/04 05:47:49;;;;;;;8.35;7.18;;;12.40;99.90;;;;;;5017095;28;20053;-79
2023/09/04 05:50:16;;;;;;;9.75;7.80;;;12.50;99.90;;;;;;5018504;28;20471;-79
2023/09/04 05:52:41;;;;;;;8.95;7.57;;;12.50;99.90;;;;;;5018057;28;20105;-78
2023/09/04 05:55:08;;;;;;;10.77;7.50;;;12.50;99.90;;;;;;5023796;28;20454;-79
2023/09/04 05:57:35;;;;;;;10.38;8.40;;;12.50;99.90;;;;;;5021233;28;20076;-79
2023/09/04 06:00:01;;;;;;;10.85;8.52;;;12.50;99.90;;;;;;5009463;28;20044;-81
2023/09/04 06:02:27;;;;;;;12.10;8.57;;;12.60;99.90;;;;;;5019558;28;20481;-78
2023/09/04 06:04:53;;;;;;;11.25;8.57;;;12.60;99.90;;;;;;5024236;28;20535;-79
2023/09/04 06:07:19;;;;;;;12.38;8.90;;;12.60;99.90;;;;;;5009421;28;20047;-78
2023/09/04 06:09:45;;;;;;;10.43;8.38;;;12.70;99.90;;;;;;5044574;28;20053;-79
2023/09/04 06:12:12;;;;;;;9.70;8.05;;;12.70;99.90;;;;;;5023861;28;20348;-79
2023/09/04 06:14:38;;;;;;;9.20;7.32;;;12.80;99.90;;;;;;5024408;28;20048;-79
2023/09/04 06:17:04;;;;;;;9.02;7.65;;;12.80;99.90;;;;;;5022798;28;20044;-79
2023/09/04 06:19:30;;;;;;;9.80;7.90;;;12.80;99.90;;;;;;5022697;28;20756;-79
2023/09/04 06:21:57;;;;;;;12.80;8.43;;;12.90;99.90;;;;;;5006853;28;20130;-79
2023/09/04 06:24:23;;;;;;;9.52;7.60;;;12.90;99.90;;;;;;5023058;28;20052;-77
2023/09/04 06:26:50;;;;;;;12.48;8.15;;;13.00;99.90;;;;;;5021806;28;20672;-78
2023/09/04 06:29:17;;;;;;;9.38;7.90;;;13.10;99.90;;;;;;5024739;28;20162;-78
2023/09/04 06:31:43;;;;;;;12.40;8.95;;;13.10;99.90;;;;;;5025600;28;20036;-78
2023/09/04 06:34:09;;;;;;;13.68;9.70;;;13.20;99.90;;;;;;5023937;28;20219;-79
2023/09/04 06:36:35;;;;;;;14.13;10.52;;;13.30;99.90;;;;;;5006051;28;20044;-78
2023/09/04 06:39:03;;;;;;;12.52;10.20;;;13.40;99.90;;;;;;5026019;28;20609;-81
2023/09/04 06:41:29;;;;;;;12.88;10.13;;;13.60;99.90;;;;;;5024478;28;20052;-79
2023/09/04 06:43:55;;;;;;;12.32;9.63;;;13.70;99.90;;;;;;5026642;28;20539;-80
2023/09/04 06:46:21;;;;;;;12.30;9.85;;;13.80;99.90;;;;;;5026393;28;20040;-78
2023/09/04 06:48:47;;;;;;;14.70;11.30;;;13.90;99.90;;;;;;5011190;28;20056;-78
2023/09/04 06:51:12;;;;;;;14.70;10.63;;;14.00;99.90;;;;;;5025377;28;20067;-77
2023/09/04 06:53:38;;;;;;;15.88;13.75;;;14.20;99.90;;;;;;5003968;28;20164;-79
2023/09/04 06:56:04;;;;;;;19.77;15.63;;;14.30;99.90;;;;;;5024107;28;20502;-79
2023/09/04 06:58:36;;;;;;;16.77;15.07;;;14.50;99.90;;;;;;5008265;28;20043;-78
2023/09/04 07:01:05;;;;;;;24.73;22.13;;;14.60;99.90;;;;;;5008873;28;20082;-77
2023/09/04 07:03:31;;;;;;;27.92;24.95;;;14.80;99.90;;;;;;5006592;28;20561;-76
2023/09/04 07:05:57;;;;;;;23.42;20.63;;;15.50;99.90;;;;;;5022548;28;20060;-78
2023/09/04 07:08:23;;;;;;;20.45;18.35;;;15.20;99.90;;;;;;5022036;28;20246;-77
2023/09/04 07:10:49;;;;;;;20.38;17.13;;;15.30;99.90;;;;;;5022120;28;21956;-76
2023/09/04 07:13:16;;;;;;;14.30;12.25;;;15.50;99.90;;;;;;5025632;28;20063;-76
2023/09/04 07:15:41;;;;;;;13.15;11.25;;;15.70;99.90;;;;;;5042044;28;20123;-78
2023/09/04 07:18:08;;;;;;;11.38;10.02;;;15.90;99.90;;;;;;5006491;28;20052;-80
2023/09/04 07:20:34;;;;;;;12.00;10.35;;;16.10;99.90;;;;;;5022038;28;20148;-79
2023/09/04 07:22:59;;;;;;;11.88;9.65;;;16.30;99.90;;;;;;5037713;28;20143;-80
2023/09/04 07:25:25;;;;;;;11.13;9.38;;;16.50;99.90;;;;;;5021477;28;20419;-78
2023/09/04 07:27:51;;;;;;;10.63;8.85;;;16.80;99.90;;;;;;5029815;28;20055;-80
2023/09/04 07:30:17;;;;;;;9.95;8.52;;;16.90;99.90;;;;;;5025260;28;20040;-78
2023/09/04 07:32:43;;;;;;;9.82;8.55;;;17.10;99.90;;;;;;4986400;28;20047;-78
2023/09/04 07:35:09;;;;;;;8.88;7.97;;;17.30;99.90;;;;;;5025272;28;20554;-76
2023/09/04 07:37:35;;;;;;;9.25;8.15;;;17.50;99.90;;;;;;5024621;28;20040;-78
2023/09/04 07:40:03;;;;;;;11.68;8.90;;;17.70;99.90;;;;;;5010182;28;20041;-79
2023/09/04 07:42:29;;;;;;;12.30;9.15;;;17.90;99.90;;;;;;5024073;28;20055;-80
2023/09/04 07:44:55;;;;;;;10.23;7.88;;;18.00;99.90;;;;;;5041059;28;21829;-79
2023/09/04 07:47:21;;;;;;;8.75;7.05;;;18.20;99.90;;;;;;5026876;28;20059;-79
2023/09/04 07:49:47;;;;;;;8.55;7.15;;;18.40;99.90;;;;;;5010194;28;21776;-80
2023/09/04 07:52:12;;;;;;;8.93;7.53;;;18.60;99.80;;;;;;5005375;28;20051;-78
2023/09/04 07:54:38;;;;;;;7.95;6.50;;;18.80;99.30;;;;;;5026408;28;20349;-79
2023/09/04 07:57:05;;;;;;;7.97;6.50;;;19.00;98.50;;;;;;5025530;28;20049;-78
2023/09/04 07:59:31;;;;;;;7.25;6.28;;;19.30;97.90;;;;;;5010069;28;20830;-78
2023/09/04 08:01:57;;;;;;;8.80;6.40;;;19.50;97.20;;;;;;5024332;28;20131;-79
2023/09/04 08:04:22;;;;;;;7.50;6.28;;;19.70;96.60;;;;;;5040957;28;20056;-80
2023/09/04 08:06:49;;;;;;;6.22;5.10;;;19.90;95.80;;;;;;5019809;28;20538;-79
2023/09/04 08:09:15;;;;;;;7.25;5.20;;;20.10;95.10;;;;;;5007619;28;20399;-78
2023/09/04 08:11:41;;;;;;;6.55;5.13;;;20.20;94.20;;;;;;5026042;28;20036;-78
2023/09/04 08:14:06;;;;;;;6.68;4.57;;;20.40;93.20;;;;;;5027247;28;20040;-80
2023/09/04 08:16:32;;;;;;;6.65;4.93;;;20.60;92.20;;;;;;5025824;28;21039;-80
2023/09/04 08:18:58;;;;;;;9.30;5.57;;;20.80;91.60;;;;;;5024114;28;20194;-80
2023/09/04 08:21:24;;;;;;;5.55;4.30;;;21.10;90.70;;;;;;5030093;28;20559;-79
2023/09/04 08:23:49;;;;;;;4.07;3.60;;;21.30;89.60;;;;;;5034334;28;20119;-77
2023/09/04 08:26:15;;;;;;;5.07;3.85;;;21.40;86.20;;;;;;4997664;28;20053;-79
2023/09/04 08:28:42;;;;;;;5.13;3.53;;;21.50;83.00;;;;;;5024860;28;20182;-79
2023/09/04 08:31:08;;;;;;;6.13;3.60;;;21.70;79.90;;;;;;5024672;28;20044;-78
2023/09/04 08:33:34;;;;;;;7.20;3.90;;;21.90;77.60;;;;;;5010085;28;20512;-78
2023/09/04 08:36:00;;;;;;;8.23;3.90;;;21.90;75.30;;;;;;5024529;28;20434;-77
2023/09/04 08:38:26;;;;;;;6.40;3.55;;;22.10;74.10;;;;;;4993871;28;20158;-79
2023/09/04 08:40:59;;;;;;;5.47;3.20;;;22.30;72.30;;;;;;5023519;28;20052;-79
2023/09/04 08:43:30;;;;;;;5.35;3.33;;;22.50;71.80;;;;;;5045815;28;20050;-80
2023/09/04 08:46:00;;;;;;;4.40;3.25;;;22.70;67.00;;;;;;5009763;28;20049;-78
2023/09/04 08:48:32;;;;;;;4.03;3.42;;;22.90;64.20;;;;;;5030115;28;20047;-79
2023/09/04 08:50:58;;;;;;;4.78;3.53;;;23.10;60.90;;;;;;5029120;28;20503;-80
2023/09/04 08:53:25;;;;;;;5.10;3.60;;;23.30;60.40;;;;;;5012783;28;20051;-78
2023/09/04 08:55:53;;;;;;;5.35;3.63;;;23.50;59.90;;;;;;5031282;28;20045;-78
2023/09/04 08:58:19;;;;;;;4.00;3.60;;;23.70;57.60;;;;;;5029440;28;20055;-78
2023/09/04 09:00:47;;;;;;;5.00;3.70;;;24.00;54.80;;;;;;5029573;28;20044;-79
2023/09/04 09:03:14;;;;;;;4.22;3.40;;;24.30;51.50;;;;;;5024648;28;20052;-79
2023/09/04 09:05:42;;;;;;;4.55;3.28;;;24.50;47.70;;;;;;5026812;28;20045;-80
2023/09/04 09:08:09;;;;;;;4.47;2.35;;;24.60;43.90;;;;;;5029266;28;20054;-78
2023/09/04 09:10:35;;;;;;;4.90;2.50;;;24.70;38.40;;;;;;5014561;28;20126;-79
2023/09/04 09:13:01;;;;;;;3.92;2.65;;;24.70;33.10;;;;;;4984283;28;20135;-79
2023/09/04 09:15:31;;;;;;;3.92;2.70;;;24.70;26.90;;;;;;5028791;28;20036;-79
2023/09/04 09:17:58;;;;;;;3.55;2.40;;;24.80;21.80;;;;;;5023491;28;20052;-80
2023/09/04 09:20:39;;;;;;;4.70;2.17;;;24.90;20.00;;;;;;5019262;28;20151;-79
2023/09/04 09:23:05;;;;;;;3.78;2.42;;;25.10;14.20;;;;;;5036497;28;20048;-79
2023/09/04 09:25:36;;;;;;;4.38;2.72;;;25.20;15.90;;;;;;5024038;28;20722;-80
2023/09/04 09:28:04;;;;;;;3.90;2.03;;;25.40;14.10;;;;;;5027692;28;20052;-78
2023/09/04 09:30:38;;;;;;;3.05;2.08;;;25.60;5.80;;;;;;5047831;28;20040;-80
2023/09/04 09:33:09;;;;;;;3.67;2.08;;;25.70;1.00;;;;;;5033652;28;20563;-79
2023/09/04 09:35:35;;;;;;;3.92;2.17;;;25.90;1.00;;;;;;5035146;28;20044;-79
2023/09/04 09:38:01;;;;;;;4.07;2.35;;;25.90;1.00;;;;;;5048830;28;20444;-79
2023/09/04 09:40:27;;;;;;;2.80;1.70;;;26.10;1.00;;;;;;5012420;28;20107;-78
2023/09/04 09:42:53;;;;;;;2.38;1.45;;;26.30;1.00;;;;;;5028967;28;20052;-79
2023/09/04 09:45:19;;;;;;;4.15;1.88;;;26.30;1.00;;;;;;5029662;28;20660;-80
2023/09/04 09:47:46;;;;;;;4.90;2.00;;;26.50;1.00;;;;;;5027721;28;20083;-80
2023/09/04 09:50:14;;;;;;;4.07;1.70;;;26.80;1.00;;;;;;5017637;28;20632;-79
2023/09/04 09:52:59;;;;;;;3.58;1.70;;;26.80;1.00;;;;;;5029750;28;20044;-79
2023/09/04 09:55:26;;;;;;;2.85;1.70;;;27.00;1.00;;;;;;5025024;28;20051;-79
2023/09/04 09:57:53;;;;;;;3.58;1.60;;;27.20;1.00;;;;;;5023087;28;20539;-79
2023/09/04 10:00:19;;;;;;;2.17;1.45;;;27.40;1.00;;;;;;5027071;28;20052;-80
2023/09/04 10:02:46;;;;;;;2.63;1.55;;;27.60;1.00;;;;;;5013487;28;20045;-81
2023/09/04 10:05:11;;;;;;;2.55;1.70;;;27.60;1.00;;;;;;5014192;28;20052;-80
2023/09/04 10:07:38;;;;;;;4.40;1.83;;;27.60;1.00;;;;;;4995685;28;20048;-80
2023/09/04 10:10:06;;;;;;;3.28;2.10;;;27.40;1.00;;;;;;5025513;28;20595;-80
2023/09/04 10:12:43;;;;;;;2.92;1.92;;;27.40;1.00;;;;;;5028666;28;20060;-80
2023/09/04 10:15:12;;;;;;;2.92;2.05;;;27.50;99.90;;;;;;5026431;28;20479;-80
2023/09/04 10:18:06;;;;;;;2.90;1.80;;;27.70;99.90;;;;;;5029742;28;21590;-79
2023/09/04 10:20:33;;;;;;;3.08;1.80;;;28.00;99.90;;;;;;5025168;28;20443;-80
2023/09/04 10:23:09;;;;;;;2.50;1.60;;;28.00;99.90;;;;;;5043103;28;20044;-79
2023/09/04 10:25:56;;;;;;;3.65;1.85;;;28.00;99.90;;;;;;5023895;28;20055;-79
2023/09/04 10:28:30;;;;;;;4.45;1.90;;;28.10;99.90;;;;;;5008791;28;20039;-80
2023/09/04 10:30:59;;;;;;;3.75;1.63;;;28.00;99.90;;;;;;5025965;28;20052;-80
2023/09/04 10:33:26;;;;;;;3.17;1.88;;;28.20;99.90;;;;;;5024676;28;20049;-79
2023/09/04 10:35:56;;;;;;;3.15;2.03;;;28.50;99.90;;;;;;5024918;28;20076;-79
2023/09/04 10:38:23;;;;;;;3.13;2.00;;;28.50;1.00;;;;;;4996302;28;20119;-81
2023/09/04 10:40:49;;;;;;;3.75;1.90;;;28.40;28.60;;;;;;5034362;28;20044;-79
2023/09/04 10:43:15;;;;;;;3.55;1.90;;;28.70;1.00;;;;;;5030233;28;20628;-80
2023/09/04 10:45:41;;;;;;;2.70;1.70;;;28.90;1.00;;;;;;5030935;28;20519;-80
2023/09/04 10:48:07;;;;;;;3.35;1.75;;;28.90;10.70;;;;;;5020628;28;20097;-80
2023/09/04 10:50:38;;;;;;;2.40;1.60;;;28.90;99.90;;;;;;5032885;28;20642;-80
2023/09/04 10:53:06;;;;;;;2.60;1.60;;;29.00;99.90;;;;;;5012007;28;20044;-80
2023/09/04 10:55:35;;;;;;;2.88;1.75;;;29.10;99.90;;;;;;5046181;28;20136;-80
2023/09/04 10:58:08;;;;;;;3.20;1.50;;;29.10;99.90;;;;;;5025977;28;20056;-79
2023/09/04 11:00:36;;;;;;;4.57;1.70;;;29.10;99.90;;;;;;5008796;28;20512;-79
2023/09/04 11:03:31;;;;;;;3.67;1.67;;;29.20;1.00;;;;;;5025579;28;21940;-80
2023/09/04 11:06:04;;;;;;;2.30;1.60;;;29.20;16.60;;;;;;5029737;28;20048;-81
2023/09/04 11:08:34;;;;;;;2.83;1.40;;;29.20;99.90;;;;;;5042115;28;20090;-80
2023/09/04 11:11:02;;;;;;;2.85;1.75;;;29.20;39.70;;;;;;5030764;28;20052;-80
2023/09/04 11:13:28;;;;;;;2.40;1.48;;;29.30;99.90;;;;;;5005268;28;20072;-80
2023/09/04 11:15:57;;;;;;;4.65;1.70;;;29.50;99.90;;;;;;5026926;28;20578;-80
2023/09/04 11:18:39;;;;;;;2.90;1.70;;;29.60;1.00;;;;;;5010683;28;20107;-80
2023/09/04 11:21:11;;;;;;;3.53;1.50;;;29.60;99.90;;;;;;5024502;28;21468;-80
2023/09/04 11:23:37;;;;;;;2.75;1.90;;;29.70;99.90;;;;;;5009011;28;20127;-80
2023/09/04 11:26:03;;;;;;;3.83;1.70;;;29.90;1.00;;;;;;5007191;28;20135;-80
2023/09/04 11:28:30;;;;;;;2.50;1.67;;;30.10;99.90;;;;;;5028317;28;20736;-79
2023/09/04 11:30:57;;;;;;;3.20;1.90;;;30.20;1.00;;;;;;5026616;28;20491;-80
2023/09/04 11:33:27;;;;;;;3.45;1.60;;;30.30;1.00;;;;;;5041782;28;20094;-81
2023/09/04 11:36:05;;;;;;;3.00;1.75;;;30.40;99.90;;;;;;5027526;28;20044;-81
2023/09/04 11:38:32;;;;;;;3.13;1.90;;;30.50;99.90;;;;;;5010561;28;20193;-79
2023/09/04 11:40:58;;;;;;;2.60;1.70;;;30.80;99.90;;;;;;5011023;28;20049;-80
2023/09/04 11:43:27;;;;;;;2.75;1.65;;;31.00;96.30;;;;;;5029670;28;20048;-80
2023/09/04 11:45:57;;;;;;;3.20;1.73;;;31.00;1.00;;;;;;5009407;28;20789;-80
2023/09/04 11:48:27;;;;;;;3.22;1.90;;;30.90;99.90;;;;;;5025125;28;20118;-80
2023/09/04 11:50:54;;;;;;;3.00;1.90;;;30.60;99.90;;;;;;5040806;28;20132;-79
2023/09/04 11:53:22;;;;;;;3.05;1.90;;;30.60;99.90;;;;;;5012236;28;20045;-79
2023/09/04 11:55:48;;;;;;;1.80;1.35;;;30.70;99.90;;;;;;5011756;28;20052;-79
2023/09/04 11:58:14;;;;;;;2.72;1.40;;;31.10;99.90;;;;;;5027679;28;20056;-79
2023/09/04 12:00:40;;;;;;;2.50;1.55;;;31.00;99.90;;;;;;5011710;28;20177;-80
2023/09/04 12:03:06;;;;;;;3.80;1.77;;;31.00;96.30;;;;;;5009140;28;20124;-79
2023/09/04 12:05:34;;;;;;;3.40;1.40;;;31.20;99.90;;;;;;4995443;28;20052;-79
2023/09/04 12:08:00;;;;;;;2.70;1.50;;;31.40;35.00;;;;;;5008124;28;20821;-80
2023/09/04 12:10:27;;;;;;;2.15;1.40;;;31.60;1.00;;;;;;5008257;28;20075;-79
2023/09/04 12:12:53;;;;;;;4.15;1.40;;;31.80;1.00;;;;;;5042534;28;20049;-80
2023/09/04 12:15:37;;;;;;;3.78;1.60;;;32.00;99.90;;;;;;5011938;28;20056;-80
2023/09/04 12:18:05;;;;;;;3.22;1.63;;;31.90;99.90;;;;;;5027974;28;20171;-80
2023/09/04 12:20:34;;;;;;;2.35;1.20;;;31.70;99.90;;;;;;5031331;28;20385;-80
2023/09/04 12:23:00;;;;;;;3.17;1.33;;;31.90;99.90;;;;;;5028125;28;20159;-79
2023/09/04 12:25:36;;;;;;;2.20;1.30;;;32.10;99.90;;;;;;5009161;28;20040;-80
2023/09/04 12:28:07;;;;;;;2.20;1.40;;;32.20;99.90;;;;;;5024995;28;20874;-80
2023/09/04 12:30:37;;;;;;;2.85;1.40;;;32.30;99.90;;;;;;5025157;28;20513;-80
2023/09/04 12:33:06;;;;;;;3.03;1.65;;;32.50;99.90;;;;;;5026044;28;20251;-79
2023/09/04 12:35:32;;;;;;;3.13;1.95;;;32.50;99.90;;;;;;5008910;28;20052;-79
2023/09/04 12:37:58;;;;;;;3.15;1.30;;;32.50;56.40;;;;;;5006805;28;20384;-79
2023/09/04 12:40:24;;;;;;;3.20;1.80;;;32.40;6.10;;;;;;5023465;28;20039;-80
2023/09/04 12:42:56;;;;;;;2.85;1.60;;;32.40;4.90;;;;;;5002409;28;20130;-79
2023/09/04 12:45:21;;;;;;;1.95;1.23;;;32.30;1.00;;;;;;5012471;28;20044;-80